Time;durP1;ratioP1;P1;durP2;ratioP2;P2;SDS_P1;SDS_P2;PMS_P1;PMS_P2;Temp;Humidity;BMP_temperature;BMP_pressure;BME280_temperature;BME280_humidity;BME280_pressure;Samples;Min_cycle;Max_cycle;Signal;HPM_P1;HPM_P2
2021/12/02 00:00:30;;;;;;;21.48;5.00;;;;;;;1.06;100.00;101215.19;6109988;23;20013;-87
2021/12/02 00:02:56;;;;;;;16.05;4.22;;;;;;;1.10;100.00;101214.03;6133292;23;20330;-86
2021/12/02 00:05:22;;;;;;;22.63;4.43;;;;;;;1.19;100.00;101220.53;6134145;23;20414;-87
2021/12/02 00:07:51;;;;;;;14.30;2.90;;;;;;;1.33;100.00;101222.22;6185628;23;20040;-87
2021/12/02 00:10:17;;;;;;;21.83;4.00;;;;;;;1.35;100.00;101203.56;6110588;23;20009;-84
2021/12/02 00:12:42;;;;;;;21.17;3.80;;;;;;;1.40;100.00;101220.00;6134291;23;20012;-85
2021/12/02 00:15:17;;;;;;;20.40;3.53;;;;;;;1.41;100.00;101219.91;6109307;23;20021;-88
2021/12/02 00:17:52;;;;;;;21.10;3.85;;;;;;;1.40;100.00;101214.69;6158867;23;20429;-85
2021/12/02 00:23:25;;;;;;;26.00;7.50;;;;;;;1.36;100.00;101202.63;6158185;23;20012;-86
2021/12/02 00:25:51;;;;;;;14.63;3.53;;;;;;;1.22;100.00;101211.53;6157830;23;20337;-87
2021/12/02 00:28:18;;;;;;;13.38;3.40;;;;;;;1.10;100.00;101208.72;6158715;23;20005;-87
2021/12/02 00:30:43;;;;;;;14.48;2.78;;;;;;;0.93;100.00;101189.63;6132685;23;20013;-87
2021/12/02 00:33:11;;;;;;;16.55;3.70;;;;;;;0.91;100.00;101191.56;6108469;23;20503;-85
2021/12/02 00:35:36;;;;;;;23.25;3.55;;;;;;;0.86;100.00;101197.16;6133519;23;20032;-90
2021/12/02 00:38:02;;;;;;;18.08;3.30;;;;;;;0.83;100.00;101192.91;6182887;23;20013;-87
2021/12/02 00:40:29;;;;;;;19.73;3.33;;;;;;;0.79;100.00;101190.56;6184528;23;20020;-87
2021/12/02 00:42:58;;;;;;;11.27;2.90;;;;;;;0.81;100.00;101192.16;6133730;23;20008;-87
2021/12/02 00:45:24;;;;;;;11.23;3.42;;;;;;;0.81;100.00;101205.38;6108241;23;20088;-86
2021/12/02 00:47:50;;;;;;;21.17;3.85;;;;;;;0.75;100.00;101197.84;6157399;23;20030;-87
2021/12/02 00:50:15;;;;;;;10.70;3.28;;;;;;;0.83;100.00;101203.50;6157458;23;19997;-86
2021/12/02 00:52:41;;;;;;;22.50;4.50;;;;;;;0.84;100.00;101213.13;6132892;23;20016;-88
2021/12/02 00:55:08;;;;;;;10.88;2.83;;;;;;;0.89;100.00;101215.47;6109498;23;20021;-87
2021/12/02 00:57:34;;;;;;;19.65;3.83;;;;;;;0.93;100.00;101206.38;6108891;23;20019;-88
2021/12/02 01:00:03;;;;;;;15.05;4.63;;;;;;;0.93;100.00;101213.44;6158146;23;20008;-87
2021/12/02 01:02:29;;;;;;;16.00;3.17;;;;;;;0.98;100.00;101212.22;6133469;23;20012;-86
2021/12/02 01:04:55;;;;;;;18.02;3.88;;;;;;;0.98;100.00;101201.63;6157681;23;20342;-84
2021/12/02 01:07:21;;;;;;;13.45;3.40;;;;;;;0.97;100.00;101207.84;6108232;23;20009;-84
2021/12/02 01:09:49;;;;;;;6.88;2.88;;;;;;;0.94;100.00;101207.22;6133074;23;20369;-84
2021/12/02 01:12:16;;;;;;;13.32;3.08;;;;;;;0.79;100.00;101196.69;6133453;23;20016;-87
2021/12/02 01:14:44;;;;;;;24.58;3.95;;;;;;;0.78;100.00;101202.94;6134025;23;20124;-88
2021/12/02 01:17:09;;;;;;;8.20;2.50;;;;;;;0.75;100.00;101200.50;6109293;23;20009;-86
2021/12/02 01:19:35;;;;;;;20.67;3.20;;;;;;;0.76;100.00;101196.91;6133295;23;20011;-85
2021/12/02 01:22:01;;;;;;;8.82;3.03;;;;;;;0.72;100.00;101200.72;6184609;23;20433;-89
2021/12/02 01:24:29;;;;;;;20.98;2.97;;;;;;;0.82;100.00;101204.44;6133044;23;20009;-87
2021/12/02 01:26:55;;;;;;;11.98;2.65;;;;;;;0.90;100.00;101197.78;6108857;23;20456;-86
2021/12/02 01:29:23;;;;;;;11.15;2.63;;;;;;;1.10;100.00;101203.44;6158341;23;20005;-87
2021/12/02 01:31:52;;;;;;;7.68;2.90;;;;;;;1.39;100.00;101202.41;6134335;23;20009;-87
2021/12/02 01:34:26;;;;;;;20.08;3.47;;;;;;;1.67;100.00;101210.16;6133332;23;20436;-86
2021/12/02 01:36:52;;;;;;;;;;;;;;;1.91;100.00;101220.81;6157961;23;20428;-87
2021/12/02 01:39:18;;;;;;;15.32;3.53;;;;;;;2.12;100.00;101222.91;6157857;23;20248;-85
2021/12/02 01:41:51;;;;;;;8.77;1.83;;;;;;;2.35;100.00;101231.84;6109927;23;20422;-86
2021/12/02 01:44:19;;;;;;;12.75;2.35;;;;;;;2.46;100.00;101233.72;6133423;23;20063;-88
2021/12/02 01:46:48;;;;;;;13.38;2.58;;;;;;;2.49;99.93;101237.03;6133150;23;20009;-86
2021/12/02 01:49:14;;;;;;;18.98;2.97;;;;;;;2.46;99.39;101236.38;6157471;23;20425;-88
2021/12/02 01:51:42;;;;;;;8.70;2.25;;;;;;;2.45;99.11;101238.19;6133033;23;20043;-87
2021/12/02 01:54:15;;;;;;;23.38;3.10;;;;;;;2.46;99.05;101234.59;6132798;23;20016;-87
2021/12/02 01:56:50;;;;;;;11.30;2.63;;;;;;;2.40;99.02;101241.16;6108328;23;20047;-86
2021/12/02 01:59:21;;;;;;;31.00;3.55;;;;;;;2.31;99.15;101231.22;6108695;23;20013;-87
2021/12/02 02:01:51;;;;;;;13.00;2.45;;;;;;;2.26;100.00;101232.53;6133266;23;20039;-85
2021/12/02 02:04:19;;;;;;;18.48;2.63;;;;;;;2.24;100.00;101223.81;6109118;23;20442;-86
2021/12/02 02:06:57;;;;;;;9.52;2.17;;;;;;;2.25;100.00;101234.34;6131967;23;20448;-89
2021/12/02 02:09:25;;;;;;;15.48;2.97;;;;;;;2.28;100.00;101235.94;6107109;23;20009;-89
2021/12/02 02:11:51;;;;;;;16.13;2.90;;;;;;;2.26;100.00;101228.06;6131334;23;20017;-88
2021/12/02 02:14:17;;;;;;;10.05;2.67;;;;;;;2.31;100.00;101243.66;6131414;23;20009;-87
2021/12/02 02:16:42;;;;;;;25.15;3.55;;;;;;;2.28;100.00;101235.94;6131063;23;20434;-88
2021/12/02 02:19:11;;;;;;;17.48;4.05;;;;;;;2.31;100.00;101235.69;6155786;23;20051;-88
2021/12/02 02:21:37;;;;;;;13.35;2.63;;;;;;;2.24;100.00;101234.44;6131173;23;20009;-88
2021/12/02 02:24:04;;;;;;;16.80;3.53;;;;;;;2.28;100.00;101246.53;6131418;23;20001;-87
2021/12/02 02:26:34;;;;;;;18.98;4.25;;;;;;;2.27;100.00;101240.34;6156142;23;20017;-86
2021/12/02 02:29:01;;;;;;;14.77;3.00;;;;;;;2.26;100.00;101248.44;6130684;23;20001;-87
2021/12/02 02:31:28;;;;;;;16.15;3.35;;;;;;;2.32;100.00;101262.09;6131269;23;20009;-87
2021/12/02 02:33:59;;;;;;;17.83;2.92;;;;;;;2.36;100.00;101260.94;6105224;23;20035;-88
2021/12/02 02:36:29;;;;;;;76.10;9.18;;;;;;;2.42;100.00;101249.03;6131628;23;20004;-85
2021/12/02 02:38:56;;;;;;;46.92;7.45;;;;;;;2.44;100.00;101235.66;6128602;23;20092;-86
2021/12/02 02:41:24;;;;;;;14.43;2.47;;;;;;;2.54;100.00;101242.84;6181632;23;20080;-88
2021/12/02 02:43:51;;;;;;;21.23;3.33;;;;;;;2.57;100.00;101247.09;6130855;23;20429;-87
2021/12/02 02:46:29;;;;;;;15.73;2.50;;;;;;;2.55;100.00;101265.75;6181784;23;20011;-86
2021/12/02 02:48:56;;;;;;;16.58;3.10;;;;;;;2.48;100.00;101267.16;6106949;23;20001;-86
2021/12/02 02:51:22;;;;;;;16.85;2.75;;;;;;;2.46;100.00;101268.22;6131456;23;20080;-88
2021/12/02 02:53:51;;;;;;;19.58;4.05;;;;;;;2.46;100.00;101266.44;6155627;23;20028;-88
2021/12/02 02:56:18;;;;;;;19.67;2.85;;;;;;;2.57;100.00;101266.50;6155349;23;20001;-87
2021/12/02 03:07:05;;;;;;;24.70;3.92;;;;;;;2.92;100.00;101252.44;6159556;23;20364;-87
2021/12/02 03:12:16;;;;;;;31.02;5.32;;;;;;;2.94;100.00;101257.63;6132558;23;20057;-86
2021/12/02 03:17:11;;;;;;;8.10;1.80;;;;;;;2.98;100.00;101262.59;6155539;23;20394;-88
2021/12/02 03:19:40;;;;;;;8.80;2.00;;;;;;;3.01;100.00;101267.69;6155319;23;20007;-88
2021/12/02 03:22:06;;;;;;;12.88;1.88;;;;;;;3.00;100.00;101258.03;6155574;23;20005;-89
2021/12/02 03:24:32;;;;;;;7.95;2.17;;;;;;;3.02;100.00;101258.75;6154755;23;20012;-88
2021/12/02 03:26:57;;;;;;;9.85;1.90;;;;;;;3.11;100.00;101269.66;6182043;23;20040;-89
2021/12/02 03:29:23;;;;;;;5.88;1.33;;;;;;;3.04;100.00;101264.81;6155594;23;20001;-86
2021/12/02 03:31:49;;;;;;;13.52;1.50;;;;;;;2.99;100.00;101266.09;6155602;23;20079;-86
2021/12/02 03:34:15;;;;;;;13.80;1.55;;;;;;;2.99;100.00;101266.09;6156162;23;20302;-87
2021/12/02 03:36:46;;;;;;;14.77;2.88;;;;;;;2.99;100.00;101268.75;6130924;23;20111;-87
2021/12/02 03:39:12;;;;;;;8.48;1.88;;;;;;;3.02;100.00;101276.53;6130903;23;20008;-88
2021/12/02 03:41:39;;;;;;;13.23;1.45;;;;;;;2.97;100.00;101268.88;6155318;23;20005;-87
2021/12/02 03:44:05;;;;;;;8.32;1.95;;;;;;;2.98;100.00;101270.56;6154409;23;20005;-88
2021/12/02 03:46:31;;;;;;;13.43;2.42;;;;;;;2.90;100.00;101262.31;6105588;23;20013;-90
2021/12/02 03:48:57;;;;;;;7.38;2.05;;;;;;;2.93;100.00;101285.16;6155525;23;20083;-88
2021/12/02 03:51:31;;;;;;;9.48;1.67;;;;;;;2.80;100.00;101278.06;6156369;23;20092;-88
2021/12/02 03:53:57;;;;;;;15.13;1.58;;;;;;;2.83;100.00;101277.00;6129432;23;20012;-87
2021/12/02 03:56:23;;;;;;;11.43;1.50;;;;;;;2.86;100.00;101268.84;6155605;23;19997;-91
2021/12/02 03:58:50;;;;;;;14.27;2.58;;;;;;;2.95;100.00;101288.56;6154938;23;20457;-90
2021/12/02 04:01:16;;;;;;;5.00;1.40;;;;;;;2.95;100.00;101280.59;6105622;23;20096;-86
2021/12/02 04:03:43;;;;;;;15.75;2.00;;;;;;;2.94;100.00;101286.84;6130076;23;20040;-87
2021/12/02 04:06:10;;;;;;;9.43;1.88;;;;;;;2.95;100.00;101289.38;6181959;23;20009;-88
2021/12/02 04:08:43;;;;;;;8.68;1.60;;;;;;;2.95;100.00;101294.72;6106571;23;20453;-88
2021/12/02 04:16:38;;;;;;;6.28;1.08;;;;;;;3.25;100.00;101280.09;6161165;23;20008;-86
2021/12/02 04:19:05;;;;;;;9.02;1.52;;;;;;;3.28;100.00;101279.84;6132878;23;20016;-88
2021/12/02 04:21:32;;;;;;;6.50;1.70;;;;;;;3.33;100.00;101288.31;6157059;23;20024;-87
2021/12/02 04:23:58;;;;;;;11.23;1.60;;;;;;;3.29;100.00;101277.09;6132172;23;20009;-88
2021/12/02 04:26:23;;;;;;;13.65;1.58;;;;;;;3.30;100.00;101272.63;6132116;23;20016;-88
2021/12/02 04:28:51;;;;;;;5.85;1.77;;;;;;;3.30;100.00;101269.97;6156671;23;20005;-88
2021/12/02 04:31:19;;;;;;;7.55;1.33;;;;;;;3.29;100.00;101277.09;6133341;23;20009;-87
2021/12/02 04:33:45;;;;;;;7.82;1.63;;;;;;;3.27;100.00;101275.50;6157354;23;20011;-89
2021/12/02 04:36:11;;;;;;;14.40;1.90;;;;;;;3.26;100.00;101285.31;6183698;23;20028;-89
2021/12/02 04:38:37;;;;;;;7.97;1.70;;;;;;;3.26;100.00;101289.78;6156668;23;20329;-89
2021/12/02 04:41:03;;;;;;;5.93;1.40;;;;;;;3.32;100.00;101283.16;6157198;23;20299;-88
2021/12/02 04:43:29;;;;;;;6.88;1.35;;;;;;;3.37;100.00;101286.31;6182413;23;20095;-89
2021/12/02 04:45:54;;;;;;;8.85;1.23;;;;;;;3.39;100.00;101289.69;6131599;23;20059;-88
2021/12/02 04:48:20;;;;;;;6.65;1.23;;;;;;;3.40;100.00;101289.56;6156998;23;20013;-88
2021/12/02 04:50:46;;;;;;;7.22;1.30;;;;;;;3.44;100.00;101291.03;6107719;23;20009;-86
2021/12/02 04:53:12;;;;;;;8.85;1.67;;;;;;;3.41;100.00;101291.25;6183256;23;20083;-87
2021/12/02 04:55:39;;;;;;;7.43;1.38;;;;;;;3.38;100.00;101288.81;6132036;23;20480;-87
2021/12/02 04:58:05;;;;;;;4.85;1.30;;;;;;;3.40;100.00;101292.22;6107981;23;20043;-87
2021/12/02 05:00:31;;;;;;;9.05;1.60;;;;;;;3.40;100.00;101294.03;6132018;23;20001;-87
2021/12/02 05:02:56;;;;;;;6.88;1.42;;;;;;;3.43;100.00;101305.28;6132498;23;20009;-87
2021/12/02 05:05:23;;;;;;;12.40;1.50;;;;;;;3.41;100.00;101295.72;6131795;23;20088;-88
2021/12/02 05:07:52;;;;;;;9.23;1.42;;;;;;;3.41;100.00;101299.22;6183174;23;20012;-87
2021/12/02 05:10:18;;;;;;;7.35;1.75;;;;;;;3.43;100.00;101292.00;6131873;23;20017;-89
2021/12/02 05:12:44;;;;;;;6.78;1.40;;;;;;;3.42;100.00;101290.31;6131793;23;20500;-87
2021/12/02 05:15:10;;;;;;;15.25;2.03;;;;;;;3.42;100.00;101292.97;6131320;23;20021;-89
2021/12/02 05:17:35;;;;;;;4.72;1.40;;;;;;;3.44;100.00;101285.72;6132367;23;20036;-88
2021/12/02 05:20:02;;;;;;;12.63;2.60;;;;;;;3.42;100.00;101290.31;6156974;23;20468;-90
2021/12/02 05:22:28;;;;;;;6.28;1.35;;;;;;;3.40;100.00;101302.03;6155798;23;20311;-88
2021/12/02 05:24:53;;;;;;;6.60;1.00;;;;;;;3.38;100.00;101299.47;6156377;23;20012;-86
2021/12/02 05:27:19;;;;;;;15.52;1.20;;;;;;;3.49;100.00;101299.53;6131690;23;20468;-88
2021/12/02 05:29:45;;;;;;;4.75;1.33;;;;;;;3.63;100.00;101305.59;6131649;23;20013;-87
2021/12/02 05:32:10;;;;;;;8.77;1.30;;;;;;;3.70;100.00;101312.13;6132061;23;20001;-89
2021/12/02 05:34:36;;;;;;;9.45;1.52;;;;;;;3.70;100.00;101310.28;6156152;23;20009;-88
2021/12/02 05:37:02;;;;;;;10.00;1.15;;;;;;;3.64;100.00;101312.59;6131779;23;20425;-89
2021/12/02 05:39:28;;;;;;;8.57;1.17;;;;;;;3.67;100.00;101320.34;6156131;23;20009;-88
2021/12/02 05:41:54;;;;;;;9.23;1.35;;;;;;;3.54;100.00;101301.81;6107442;23;20040;-87
2021/12/02 05:44:23;;;;;;;11.82;1.60;;;;;;;3.58;100.00;101318.38;6131187;23;20016;-85
2021/12/02 05:46:50;;;;;;;9.95;1.75;;;;;;;3.51;100.00;101310.03;6157046;23;20004;-89
2021/12/02 05:49:16;;;;;;;11.75;2.38;;;;;;;3.48;100.00;101307.59;6131481;23;20011;-87
2021/12/02 05:51:42;;;;;;;10.10;1.48;;;;;;;3.49;100.00;101312.81;6156785;23;20008;-88
2021/12/02 05:54:11;;;;;;;8.85;1.75;;;;;;;3.59;100.00;101306.78;6156755;23;20005;-89
2021/12/02 05:56:37;;;;;;;7.25;1.10;;;;;;;3.62;100.00;101304.72;6107008;23;20529;-87
2021/12/02 05:59:03;;;;;;;6.30;1.05;;;;;;;3.60;100.00;101309.34;6156626;23;20001;-88
2021/12/02 06:01:29;;;;;;;5.68;1.30;;;;;;;3.63;100.00;101305.59;6131860;23;20020;-86
2021/12/02 06:03:55;;;;;;;5.97;0.93;;;;;;;3.62;100.00;101299.41;6182803;23;20012;-89
2021/12/02 06:06:23;;;;;;;6.88;1.33;;;;;;;3.63;100.00;101305.59;6156097;23;20042;-89
2021/12/02 06:08:51;;;;;;;9.90;2.45;;;;;;;3.68;100.00;101298.13;6155987;23;20016;-88
2021/12/02 06:11:17;;;;;;;12.68;1.50;;;;;;;3.67;100.00;101293.75;6155815;23;20005;-86
2021/12/02 06:13:45;;;;;;;8.65;1.50;;;;;;;3.67;100.00;101291.91;6156134;23;20012;-88
2021/12/02 06:16:10;;;;;;;4.78;1.42;;;;;;;3.72;100.00;101288.91;6156698;23;20103;-88
2021/12/02 06:18:36;;;;;;;12.90;2.08;;;;;;;3.78;100.00;101301.72;6156029;23;20388;-86
2021/12/02 06:21:02;;;;;;;9.43;1.25;;;;;;;3.73;100.00;101295.91;6132100;23;20007;-87
2021/12/02 06:23:27;;;;;;;5.05;1.23;;;;;;;3.77;100.00;101301.88;6156421;23;20648;-89
2021/12/02 06:25:53;;;;;;;10.05;1.23;;;;;;;3.71;100.00;101303.19;6155798;23;19997;-88
2021/12/02 06:28:19;;;;;;;9.75;2.22;;;;;;;3.65;100.00;101298.31;6157228;23;20428;-88
2021/12/02 06:30:47;;;;;;;4.40;1.13;;;;;;;3.69;100.00;101299.78;6183142;23;20011;-88
2021/12/02 06:33:13;;;;;;;6.47;1.38;;;;;;;3.69;100.00;101307.78;6107441;23;20016;-88
2021/12/02 06:35:39;;;;;;;7.65;1.23;;;;;;;3.69;100.00;101310.44;6132891;23;20005;-87
2021/12/02 06:38:05;;;;;;;3.10;1.13;;;;;;;3.68;100.00;101319.38;6107071;23;20005;-88
2021/12/02 06:40:34;;;;;;;4.57;1.00;;;;;;;3.68;100.00;101316.72;6106562;23;20017;-89
2021/12/02 06:42:59;;;;;;;7.18;1.20;;;;;;;3.71;100.00;101325.31;6156791;23;20013;-88
2021/12/02 06:45:27;;;;;;;13.35;1.25;;;;;;;3.73;100.00;101320.72;6131684;23;20023;-89
2021/12/02 06:47:57;;;;;;;4.65;1.38;;;;;;;3.72;100.00;101323.50;6156352;23;20020;-87
2021/12/02 06:50:23;;;;;;;9.07;2.00;;;;;;;3.82;100.00;101321.81;6132489;23;20080;-89
2021/12/02 06:52:50;;;;;;;14.68;1.45;;;;;;;3.84;100.00;101325.22;6156352;23;20374;-88
2021/12/02 06:55:17;;;;;;;4.68;1.00;;;;;;;3.90;100.00;101327.41;6132457;23;20591;-88
2021/12/02 06:57:42;;;;;;;13.65;1.60;;;;;;;3.96;100.00;101315.44;6106788;23;20441;-88
2021/12/02 07:00:11;;;;;;;6.80;1.10;;;;;;;4.05;100.00;101325.38;6155975;23;20029;-87
2021/12/02 07:02:37;;;;;;;5.38;1.52;;;;;;;4.12;100.00;101317.75;6106904;23;20008;-89
2021/12/02 07:05:04;;;;;;;6.97;1.55;;;;;;;4.12;100.00;101307.94;6130317;23;20441;-90
2021/12/02 07:07:36;;;;;;;8.88;1.42;;;;;;;4.19;100.00;101318.97;6131107;23;20018;-89
2021/12/02 07:10:14;;;;;;;7.40;1.05;;;;;;;4.21;100.00;101324.16;6131282;23;20389;-89
2021/12/02 07:12:42;;;;;;;12.88;1.40;;;;;;;4.25;100.00;101334.44;6132270;23;20081;-90
2021/12/02 07:15:19;;;;;;;5.88;1.20;;;;;;;4.25;100.00;101334.44;6131917;23;20316;-89
2021/12/02 07:17:55;;;;;;;6.97;2.28;;;;;;;4.22;100.00;101337.34;6133470;23;20484;-87
2021/12/02 07:20:21;;;;;;;8.35;3.65;;;;;;;4.14;100.00;101324.63;6132788;23;20005;-89
2021/12/02 07:22:50;;;;;;;18.77;3.90;;;;;;;4.19;100.00;101342.91;6156997;23;20005;-89
2021/12/02 07:25:15;;;;;;;13.15;2.63;;;;;;;4.16;100.00;101338.69;6156546;23;20310;-89
2021/12/02 07:27:42;;;;;;;9.48;2.85;;;;;;;4.21;100.00;101348.09;6155766;23;20063;-90
2021/12/02 07:30:08;;;;;;;13.40;6.10;;;;;;;4.13;100.00;101338.91;6156546;23;20005;-90
2021/12/02 07:32:40;;;;;;;65.82;22.92;;;;;;;4.16;100.00;101348.47;6105907;23;20087;-89
2021/12/02 07:35:14;;;;;;;26.60;8.68;;;;;;;4.17;100.00;101350.16;6107546;23;20005;-87
2021/12/02 07:37:42;;;;;;;41.60;13.75;;;;;;;4.11;100.00;101353.31;6107699;23;20013;-89
2021/12/02 07:40:08;;;;;;;52.83;18.75;;;;;;;4.13;100.00;101367.34;6156114;23;20016;-90
2021/12/02 07:42:34;;;;;;;21.58;6.95;;;;;;;4.15;100.00;101368.06;6106883;23;20311;-88
2021/12/02 07:45:00;;;;;;;54.65;17.13;;;;;;;4.14;100.00;101361.91;6157078;23;20009;-88
2021/12/02 07:47:26;;;;;;;101.00;29.95;;;;;;;4.03;100.00;101347.75;6133443;23;20493;-88
2021/12/02 07:49:54;;;;;;;88.20;32.85;;;;;;;4.15;100.00;101363.63;6132577;23;20036;-88
2021/12/02 07:52:24;;;;;;;55.72;19.63;;;;;;;4.09;100.00;101350.75;6157999;23;20074;-89
2021/12/02 07:54:55;;;;;;;37.35;14.30;;;;;;;4.09;100.00;101365.88;6109988;23;20069;-89
2021/12/02 07:57:21;;;;;;;41.20;21.75;;;;;;;4.04;100.00;101368.91;6109730;23;20021;-88
2021/12/02 07:59:50;;;;;;;28.77;11.07;;;;;;;4.07;100.00;101370.47;6158389;23;20005;-89
2021/12/02 08:02:17;;;;;;;25.77;9.85;;;;;;;4.07;100.00;101376.63;6133539;23;20007;-86
2021/12/02 08:04:43;;;;;;;15.43;5.88;;;;;;;4.04;100.00;101368.91;6157950;23;20452;-88
2021/12/02 08:07:09;;;;;;;13.40;6.15;;;;;;;4.03;100.00;101372.53;6133398;23;20005;-89
2021/12/02 08:09:35;;;;;;;17.27;6.25;;;;;;;4.00;100.00;101374.59;6158629;23;20065;-89
2021/12/02 08:12:02;;;;;;;29.95;16.08;;;;;;;4.02;100.00;101381.47;6158308;23;20073;-89
2021/12/02 08:14:28;;;;;;;18.58;9.02;;;;;;;3.92;100.00;101364.53;6160100;23;20005;-90
2021/12/02 08:16:53;;;;;;;19.05;7.32;;;;;;;3.99;100.00;101380.88;6161280;23;20031;-88
2021/12/02 08:19:20;;;;;;;14.57;6.47;;;;;;;3.96;100.00;101376.63;6186887;23;20449;-88
2021/12/02 08:21:47;;;;;;;7.88;3.80;;;;;;;3.98;100.00;101372.03;6186484;23;20005;-88
2021/12/02 08:24:12;;;;;;;8.15;2.60;;;;;;;4.03;100.00;101371.69;6135341;23;20373;-88
2021/12/02 08:26:38;;;;;;;10.40;3.60;;;;;;;4.06;100.00;101364.31;6158107;23;20020;-88
2021/12/02 08:29:05;;;;;;;9.93;2.88;;;;;;;4.05;100.00;101369.75;6134203;23;20013;-88
2021/12/02 08:31:31;;;;;;;8.05;3.80;;;;;;;4.06;100.00;101376.78;6159934;23;20012;-88
2021/12/02 08:33:57;;;;;;;16.48;3.42;;;;;;;4.08;100.00;101377.50;6133314;23;20005;-89
2021/12/02 08:36:26;;;;;;;7.70;2.90;;;;;;;4.08;100.00;101373.03;6133281;23;20013;-86
2021/12/02 08:38:52;;;;;;;11.93;2.65;;;;;;;4.16;100.00;101383.94;6157742;23;20500;-88
2021/12/02 08:41:19;;;;;;;6.70;2.28;;;;;;;4.18;100.00;101386.44;6157531;23;19997;-87
2021/12/02 08:43:49;;;;;;;11.45;3.03;;;;;;;4.23;100.00;101386.09;6159567;23;20338;-89
2021/12/02 08:46:15;;;;;;;11.05;3.90;;;;;;;4.24;100.00;101386.00;6157117;23;20308;-91
2021/12/02 08:48:41;;;;;;;9.20;3.00;;;;;;;4.24;100.00;101379.84;6158348;23;20445;-91
2021/12/02 08:51:07;;;;;;;13.48;4.15;;;;;;;4.28;100.00;101382.09;6157471;23;20105;-88
2021/12/02 08:53:35;;;;;;;14.48;4.22;;;;;;;4.29;100.00;101373.19;6133030;23;20437;-89
2021/12/02 08:56:01;;;;;;;10.27;3.33;;;;;;;4.30;100.00;101372.19;6183342;23;20009;-89
2021/12/02 08:58:27;;;;;;;6.95;2.90;;;;;;;4.34;100.00;101373.66;6183710;23;20001;-88
2021/12/02 09:00:55;;;;;;;11.68;3.20;;;;;;;4.38;100.00;101372.44;6156094;23;20031;-87
2021/12/02 09:03:21;;;;;;;11.00;2.50;;;;;;;4.35;100.00;101363.84;6183163;23;20329;-87
2021/12/02 09:05:52;;;;;;;9.07;1.85;;;;;;;4.34;100.00;101359.47;6132963;23;20005;-90
2021/12/02 09:08:20;;;;;;;8.85;1.70;;;;;;;4.21;100.00;101348.09;6157900;23;20005;-88
2021/12/02 09:10:47;;;;;;;10.45;2.53;;;;;;;4.10;100.00;101347.16;6158015;23;20479;-89
2021/12/02 09:13:13;;;;;;;16.27;2.30;;;;;;;3.96;100.00;101345.53;6157822;23;20047;-88
2021/12/02 09:15:39;;;;;;;8.85;2.35;;;;;;;3.78;100.00;101330.16;6181905;23;20422;-87
2021/12/02 09:18:05;;;;;;;10.07;2.58;;;;;;;3.70;100.00;101333.38;6132798;23;20087;-88
2021/12/02 09:20:31;;;;;;;11.40;3.40;;;;;;;3.53;100.00;101327.56;6157978;23;20009;-90
2021/12/02 09:22:56;;;;;;;8.90;3.58;;;;;;;3.52;100.00;101331.19;6157097;23;20009;-90
2021/12/02 09:25:22;;;;;;;13.85;2.15;;;;;;;3.60;100.00;101338.59;6156099;23;20028;-89
2021/12/02 09:27:48;;;;;;;14.15;2.67;;;;;;;3.62;100.00;101335.78;6183496;23;20005;-87
2021/12/02 09:30:16;;;;;;;10.40;2.85;;;;;;;3.62;100.00;101339.28;6157619;23;20037;-91
2021/12/02 09:32:42;;;;;;;10.05;1.90;;;;;;;3.62;100.00;101341.94;6108611;23;20013;-89
2021/12/02 09:35:09;;;;;;;8.40;2.53;;;;;;;3.56;100.00;101331.78;6157379;23;20148;-86
2021/12/02 09:37:34;;;;;;;9.82;2.33;;;;;;;3.63;100.00;101348.16;6156380;23;20381;-89
2021/12/02 09:40:00;;;;;;;9.73;1.95;;;;;;;3.72;100.00;101353.59;6157195;23;20048;-87
2021/12/02 09:42:26;;;;;;;14.00;3.33;;;;;;;3.75;100.00;101349.84;6108105;23;20096;-90
2021/12/02 09:44:58;;;;;;;10.45;3.50;;;;;;;3.76;100.00;101351.56;6157419;23;19997;-89
2021/12/02 09:47:24;;;;;;;6.05;2.03;;;;;;;3.89;100.00;101362.09;6157004;23;20012;-89
2021/12/02 09:49:50;;;;;;;22.00;2.35;;;;;;;3.95;100.00;101357.16;6156919;23;20112;-87
2021/12/02 09:52:18;;;;;;;10.73;2.67;;;;;;;4.01;100.00;101353.16;6156784;23;20009;-89
2021/12/02 09:54:52;;;;;;;5.43;1.42;;;;;;;4.17;100.00;101363.47;6132725;23;20382;-90
2021/12/02 09:57:22;;;;;;;7.50;1.48;;;;;;;4.30;100.00;101368.69;6159275;23;20009;-89
2021/12/02 09:59:50;;;;;;;10.77;2.38;;;;;;;4.39;100.00;101358.19;6157609;23;20330;-90
2021/12/02 10:02:18;;;;;;;8.13;1.60;;;;;;;4.52;100.00;101354.53;6133005;23;20012;-86
2021/12/02 10:04:53;;;;;;;10.60;1.73;;;;;;;4.72;100.00;101360.94;6106991;23;20075;-89
2021/12/02 10:07:45;;;;;;;6.15;1.77;;;;;;;4.73;100.00;101347.47;6157601;23;20452;-88
2021/12/02 10:10:50;;;;;;;10.60;1.90;;;;;;;4.89;100.00;101359.56;6162458;23;20028;-90
2021/12/02 10:16:07;;;;;;;9.25;1.70;;;;;;;5.06;100.00;101367.06;6134419;23;20397;-90
2021/12/02 10:18:52;;;;;;;11.68;2.03;;;;;;;5.11;100.00;101359.53;6157224;23;20017;-90
2021/12/02 10:21:54;;;;;;;7.13;2.63;;;;;;;5.13;100.00;101360.22;6109021;23;20017;-89
2021/12/02 10:24:16;;;;;;;8.90;1.67;;;;;;;5.18;100.00;101365.19;6153930;23;20013;-89
2021/12/02 10:26:54;;;;;;;12.98;1.92;;;;;;;5.27;100.00;101365.28;6108049;23;20096;-89
2021/12/02 10:29:24;;;;;;;12.93;2.90;;;;;;;5.39;100.00;101368.75;6108429;23;20008;-88
2021/12/02 10:32:12;;;;;;;8.55;1.55;;;;;;;5.48;100.00;101373.34;6132340;23;20005;-90
2021/12/02 10:34:54;;;;;;;5.82;1.60;;;;;;;5.63;99.95;101373.84;6156900;23;20063;-89
2021/12/02 10:37:22;;;;;;;6.82;1.15;;;;;;;5.80;99.08;101383.13;6107840;23;20385;-87
2021/12/02 10:39:57;;;;;;;15.77;3.10;;;;;;;6.07;97.54;101377.28;6132789;23;20452;-89
2021/12/02 10:42:23;;;;;;;9.60;1.60;;;;;;;6.39;96.36;101358.47;6157177;23;20027;-87
2021/12/02 10:44:49;;;;;;;9.20;1.35;;;;;;;6.92;94.84;101369.91;6107915;23;20325;-88
2021/12/02 10:47:16;;;;;;;8.38;1.50;;;;;;;7.53;93.15;101375.06;6157528;23;20044;-91
2021/12/02 10:49:56;;;;;;;8.52;1.70;;;;;;;8.06;91.03;101369.22;6132452;23;20322;-90
2021/12/02 10:52:30;;;;;;;8.73;1.52;;;;;;;8.81;87.89;101371.91;6157432;23;20001;-88
2021/12/02 10:55:08;;;;;;;6.82;1.50;;;;;;;9.18;85.58;101362.94;6132068;23;20060;-89
2021/12/02 10:57:37;;;;;;;13.20;1.75;;;;;;;9.16;83.97;101348.84;6108236;23;19997;-89
2021/12/02 11:00:12;;;;;;;6.72;1.85;;;;;;;9.21;83.69;101352.78;6132529;23;20037;-91
2021/12/02 11:02:46;;;;;;;12.35;1.50;;;;;;;9.10;83.16;101350.28;6132920;23;20083;-88
2021/12/02 11:05:22;;;;;;;10.70;1.65;;;;;;;8.83;82.76;101347.66;6107705;23;20020;-89
2021/12/02 11:08:07;;;;;;;9.30;1.88;;;;;;;8.57;82.63;101326.88;6109550;23;20385;-88
2021/12/02 11:10:37;;;;;;;11.52;1.80;;;;;;;8.56;82.76;101347.50;6156942;23;20068;-90
2021/12/02 11:13:04;;;;;;;7.72;2.35;;;;;;;8.78;82.48;101348.94;6157250;23;20005;-89
2021/12/02 11:15:38;;;;;;;15.68;3.65;;;;;;;9.05;82.27;101336.50;6108095;23;20337;-88
2021/12/02 11:26:25;;;;;;;5.63;1.70;;;;;;;8.03;83.53;101339.22;6078094;23;20025;-91
2021/12/02 11:29:31;;;;;;;5.50;1.70;;;;;;;7.79;84.70;101340.53;6040356;23;20022;-90
2021/12/02 11:33:09;;;;;;;6.22;1.80;;;;;;;7.57;85.13;101338.13;6081421;23;20006;-91
2021/12/02 11:37:16;;;;;;;6.28;1.40;;;;;;;7.42;86.15;101335.91;6097578;23;20028;-90
2021/12/02 11:39:47;;;;;;;13.40;1.80;;;;;;;7.21;87.02;101337.88;6039232;23;20018;-91
2021/12/02 11:53:50;;;;;;;25.70;4.97;;;;;;;7.34;88.69;101330.41;6150763;23;20009;-91
2021/12/02 11:56:20;;;;;;;29.65;8.60;;;;;;;7.36;88.86;101331.13;6133986;23;20055;-90
2021/12/02 11:58:47;;;;;;;24.20;7.90;;;;;;;7.28;89.59;101320.28;6158944;23;20085;-91
2021/12/02 12:01:20;;;;;;;9.85;3.40;;;;;;;7.24;89.98;101318.88;6109285;23;20001;-90
2021/12/02 12:04:02;;;;;;;13.50;3.60;;;;;;;7.21;89.40;101327.19;6134596;23;19997;-90
2021/12/02 12:06:30;;;;;;;9.70;2.55;;;;;;;7.19;89.59;101329.97;6134596;23;20314;-90
2021/12/02 12:08:57;;;;;;;29.02;10.40;;;;;;;7.16;90.13;101322.25;6133547;23;20068;-90
2021/12/02 12:11:27;;;;;;;41.47;14.93;;;;;;;7.15;90.33;101317.88;6158281;23;20009;-90
2021/12/02 12:14:05;;;;;;;27.42;8.82;;;;;;;7.13;91.13;101314.50;6157817;23;20016;-87